Mississippi Enterprise — WDE2542 — position and weather

sailwx.info

Track history (hours):
 
Tides and Currents Weather Stations Pressure Air Temp Water Temp Dewpoint Dewpoint Depression Visibility Wind Speed Wind Dir Waves Ship Positions

Mississippi Enterprise

More information available from US FCC via Universal Licensing System and Coast Guard Vessel Documentation Center.

Last reported at 2014-Aug-30 15:33 UTC. Time now 2014-Aug-31 06:38 UTC.
Position N 27°43' W 082°33'.

Length 187 m; draft 9.4 m.

Type: Cargo ship. MMSI: 369813000.

Date/timePositionNaut miles runAvg speedWind from/ knotsBaromVisibWave heightAir tempDewpointWater temp
2014-Aug-30 15:33N 27°43' W 082°33'1211.7
2014-Aug-30 14:33N 27°36' W 082°44'1211.9
2014-Aug-30 13:32N 27°36' W 082°58'4 4.2
2014-Aug-30 12:33N 27°37' W 083°02'0 0.0
2014-Aug-30 11:33N 27°37' W 083°02'0 0.0
2014-Aug-30 10:33N 27°37' W 083°02'0 0.0
2014-Aug-30 09:33N 27°37' W 083°02'0 0.0
2014-Aug-30 08:33N 27°37' W 083°02'0 0.1
2014-Aug-30 07:21N 27°37' W 083°02'0 0.0
2014-Aug-30 06:32N 27°37' W 083°02'0 0.0
2014-Aug-30 05:33N 27°37' W 083°02'0 0.0
2014-Aug-30 04:33N 27°37' W 083°02'0 0.0
2014-Aug-30 03:33N 27°37' W 083°02'0 0.1
2014-Aug-30 02:21N 27°37' W 083°02'0 0.2
2014-Aug-30 01:33N 27°37' W 083°02'  
2014-Aug-27 09:14N 29°58' W 090°18'7 9.8
2014-Aug-27 08:33N 29°60' W 090°25'5 5.4
2014-Aug-27 07:33N 30°03' W 090°30'0 0.0
2014-Aug-27 06:31N 30°03' W 090°30'0 0.0
2014-Aug-27 05:31N 30°03' W 090°30'0 0.0
2014-Aug-27 04:28N 30°03' W 090°30'0 0.0
2014-Aug-27 03:31N 30°03' W 090°30'0 0.0
2014-Aug-27 02:31N 30°03' W 090°30'0 0.0
2014-Aug-27 01:31N 30°03' W 090°30'0 0.0
2014-Aug-27 00:31N 30°03' W 090°30'0 0.0
2014-Aug-26 23:31N 30°03' W 090°30'0 0.0
2014-Aug-26 22:28N 30°03' W 090°30'0 0.0
2014-Aug-26 06:19N 30°03' W 090°30'0 0.0
2014-Aug-26 04:31N 30°03' W 090°30'0 0.0
2014-Aug-25 12:31N 30°03' W 090°30'0 0.0
2014-Aug-25 11:31N 30°03' W 090°30'0 0.0
2014-Aug-25 10:31N 30°03' W 090°30'0 0.0
2014-Aug-25 09:31N 30°03' W 090°30'0 0.0
2014-Aug-25 08:28N 30°03' W 090°30'0 0.0
2014-Aug-25 07:31N 30°03' W 090°30'0 0.0
2014-Aug-25 06:31N 30°03' W 090°30'0 0.0
2014-Aug-25 05:31N 30°03' W 090°30'0 0.0
2014-Aug-25 04:31N 30°03' W 090°30'0 0.0
2014-Aug-25 03:31N 30°03' W 090°30'0 0.0
2014-Aug-25 01:31N 30°03' W 090°30'0 0.0
2014-Aug-25 00:31N 30°03' W 090°30'0 0.0
2014-Aug-24 23:31N 30°03' W 090°30'0 0.0
2014-Aug-24 22:31N 30°03' W 090°30'0 0.0
2014-Aug-24 21:31N 30°03' W 090°30'0 0.0
2014-Aug-24 20:31N 30°03' W 090°30'0 0.0
2014-Aug-24 19:31N 30°03' W 090°30'0 0.0
2014-Aug-24 18:31N 30°03' W 090°30'0 0.0
2014-Aug-24 17:28N 30°03' W 090°30'0 0.0
2014-Aug-24 16:31N 30°03' W 090°30'0 0.0
2014-Aug-24 15:13N 30°03' W 090°30'0 0.0
2014-Aug-24 14:31N 30°03' W 090°30'0 0.0
2014-Aug-24 12:13N 30°03' W 090°30'0 0.0
2014-Aug-24 11:31N 30°03' W 090°30'0 0.0
2014-Aug-24 10:31N 30°03' W 090°30'0 0.0
2014-Aug-24 09:31N 30°03' W 090°30'0 0.0
2014-Aug-24 08:28N 30°03' W 090°30'0 0.0
2014-Aug-24 07:31N 30°03' W 090°30'0 0.0
2014-Aug-24 06:31N 30°03' W 090°30'0 0.0
2014-Aug-24 05:31N 30°03' W 090°30'0 0.0
2014-Aug-24 04:31N 30°03' W 090°30'0 0.0
2014-Aug-24 03:31N 30°03' W 090°30'0 0.0
2014-Aug-24 02:31N 30°03' W 090°30'0 0.0
2014-Aug-24 01:31N 30°03' W 090°30'0 0.0
2014-Aug-24 00:28N 30°03' W 090°30'0 0.0
2014-Aug-23 23:28N 30°03' W 090°30'0 0.0
2014-Aug-23 22:31N 30°03' W 090°30'0 0.0
2014-Aug-23 21:31N 30°03' W 090°30'0 0.0
2014-Aug-23 20:31N 30°03' W 090°30'0 0.0
2014-Aug-23 19:31N 30°03' W 090°30'0 0.0
2014-Aug-23 03:28N 30°03' W 090°30'0 0.0
2014-Aug-23 02:31N 30°03' W 090°30'0 0.0
2014-Aug-23 01:31N 30°03' W 090°30'0 0.0
2014-Aug-23 00:31N 30°03' W 090°30'0 0.0
2014-Aug-22 23:31N 30°03' W 090°30'42610.2
2014-Aug-21 05:34N 27°36' W 082°53'1211.5
2014-Aug-21 04:32N 27°37' W 082°39'1010.6
2014-Aug-21 03:33N 27°45' W 082°32'10 9.8
2014-Aug-21 02:32N 27°54' W 082°26'  
Track history (hours):
 
Tides and Currents Weather Stations Pressure Air Temp Water Temp Dewpoint Dewpoint Depression Visibility Wind Speed Wind Dir Waves Ship Positions

Mississippi Enterprise

More information available from US FCC via Universal Licensing System and Coast Guard Vessel Documentation Center.

Last reported at 2014-Aug-30 15:33 UTC. Time now 2014-Aug-31 06:38 UTC.
Position N 27°43' W 082°33'.

Length 187 m; draft 9.4 m.

Type: Cargo ship. MMSI: 369813000.

Date/timePositionNaut miles runAvg speedWind from/ knotsBaromVisibWave heightAir tempDewpointWater temp
2014-Aug-30 15:33N 27°43' W 082°33'1211.7
2014-Aug-30 14:33N 27°36' W 082°44'1211.9
2014-Aug-30 13:32N 27°36' W 082°58'4 4.2
2014-Aug-30 12:33N 27°37' W 083°02'0 0.0
2014-Aug-30 11:33N 27°37' W 083°02'0 0.0
2014-Aug-30 10:33N 27°37' W 083°02'0 0.0
2014-Aug-30 09:33N 27°37' W 083°02'0 0.0
2014-Aug-30 08:33N 27°37' W 083°02'0 0.1
2014-Aug-30 07:21N 27°37' W 083°02'0 0.0
2014-Aug-30 06:32N 27°37' W 083°02'0 0.0
2014-Aug-30 05:33N 27°37' W 083°02'0 0.0
2014-Aug-30 04:33N 27°37' W 083°02'0 0.0
2014-Aug-30 03:33N 27°37' W 083°02'0 0.1
2014-Aug-30 02:21N 27°37' W 083°02'0 0.2
2014-Aug-30 01:33N 27°37' W 083°02'  
2014-Aug-27 09:14N 29°58' W 090°18'7 9.8
2014-Aug-27 08:33N 29°60' W 090°25'5 5.4
2014-Aug-27 07:33N 30°03' W 090°30'0 0.0
2014-Aug-27 06:31N 30°03' W 090°30'0 0.0
2014-Aug-27 05:31N 30°03' W 090°30'0 0.0
2014-Aug-27 04:28N 30°03' W 090°30'0 0.0
2014-Aug-27 03:31N 30°03' W 090°30'0 0.0
2014-Aug-27 02:31N 30°03' W 090°30'0 0.0
2014-Aug-27 01:31N 30°03' W 090°30'0 0.0
2014-Aug-27 00:31N 30°03' W 090°30'0 0.0
2014-Aug-26 23:31N 30°03' W 090°30'0 0.0
2014-Aug-26 22:28N 30°03' W 090°30'0 0.0
2014-Aug-26 06:19N 30°03' W 090°30'0 0.0
2014-Aug-26 04:31N 30°03' W 090°30'0 0.0
2014-Aug-25 12:31N 30°03' W 090°30'0 0.0
2014-Aug-25 11:31N 30°03' W 090°30'0 0.0
2014-Aug-25 10:31N 30°03' W 090°30'0 0.0
2014-Aug-25 09:31N 30°03' W 090°30'0 0.0
2014-Aug-25 08:28N 30°03' W 090°30'0 0.0
2014-Aug-25 07:31N 30°03' W 090°30'0 0.0
2014-Aug-25 06:31N 30°03' W 090°30'0 0.0
2014-Aug-25 05:31N 30°03' W 090°30'0 0.0
2014-Aug-25 04:31N 30°03' W 090°30'0 0.0
2014-Aug-25 03:31N 30°03' W 090°30'0 0.0
2014-Aug-25 01:31N 30°03' W 090°30'0 0.0
2014-Aug-25 00:31N 30°03' W 090°30'0 0.0
2014-Aug-24 23:31N 30°03' W 090°30'0 0.0
2014-Aug-24 22:31N 30°03' W 090°30'0 0.0
2014-Aug-24 21:31N 30°03' W 090°30'0 0.0
2014-Aug-24 20:31N 30°03' W 090°30'0 0.0
2014-Aug-24 19:31N 30°03' W 090°30'0 0.0
2014-Aug-24 18:31N 30°03' W 090°30'0 0.0
2014-Aug-24 17:28N 30°03' W 090°30'0 0.0
2014-Aug-24 16:31N 30°03' W 090°30'0 0.0
2014-Aug-24 15:13N 30°03' W 090°30'0 0.0
2014-Aug-24 14:31N 30°03' W 090°30'0 0.0
2014-Aug-24 12:13N 30°03' W 090°30'0 0.0
2014-Aug-24 11:31N 30°03' W 090°30'0 0.0
2014-Aug-24 10:31N 30°03' W 090°30'0 0.0
2014-Aug-24 09:31N 30°03' W 090°30'0 0.0
2014-Aug-24 08:28N 30°03' W 090°30'0 0.0
2014-Aug-24 07:31N 30°03' W 090°30'0 0.0
2014-Aug-24 06:31N 30°03' W 090°30'0 0.0
2014-Aug-24 05:31N 30°03' W 090°30'0 0.0
2014-Aug-24 04:31N 30°03' W 090°30'0 0.0
2014-Aug-24 03:31N 30°03' W 090°30'0 0.0
2014-Aug-24 02:31N 30°03' W 090°30'0 0.0
2014-Aug-24 01:31N 30°03' W 090°30'0 0.0
2014-Aug-24 00:28N 30°03' W 090°30'0 0.0
2014-Aug-23 23:28N 30°03' W 090°30'0 0.0
2014-Aug-23 22:31N 30°03' W 090°30'0 0.0
2014-Aug-23 21:31N 30°03' W 090°30'0 0.0
2014-Aug-23 20:31N 30°03' W 090°30'0 0.0
2014-Aug-23 19:31N 30°03' W 090°30'0 0.0
2014-Aug-23 03:28N 30°03' W 090°30'0 0.0
2014-Aug-23 02:31N 30°03' W 090°30'0 0.0
2014-Aug-23 01:31N 30°03' W 090°30'0 0.0
2014-Aug-23 00:31N 30°03' W 090°30'0 0.0
2014-Aug-22 23:31N 30°03' W 090°30'42610.2
2014-Aug-21 05:34N 27°36' W 082°53'1211.5
2014-Aug-21 04:32N 27°37' W 082°39'1010.6
2014-Aug-21 03:33N 27°45' W 082°32'10 9.8
2014-Aug-21 02:32N 27°54' W 082°26'  

Dump ship's entire track history